Aérodrome :
LOGIN :

S'inscrire | Disclaimer

   EN    FR    IT 

 










Légende :    VFR   VFR Marginal   IFR   IFR Intensif   IFR Très Intensif
Visi : 
Plafond : 
>= 8 km
>= 3000ft
5 à 8 km
1000 à 3000 ft
1500m à 5 km
500 à 1000 ft
800 à 1500m
200 à 500 ft
< 800m
< 200 ft
Symboles :   Orages  Brouillard  Fortes neiges  Fortes précipitations  Vent > 20 kt
SIGMETs :   Divers  Orages  Givrage  Turbulence  Onde Orograph.  Cendres Volcan.






- Altitude de l'aérodrome : 1017 ft


LFSL - Brive Souillac

DERNIER METAR :
  • 190430Z AUTO 35004KT 320V020 8000 OVC046 03/03 Q1017 NOSIG

METARs EXPIRÉS :
  • 190400Z AUTO 31006KT 8000 FEW039 OVC046 03/03 Q1017 NOSIG
  • 190330Z AUTO 30003KT 260V320 8000 OVC039 03/03 Q1017 NOSIG
  • 190300Z AUTO 30004KT 9000 OVC039 03/03 Q1017 NOSIG
  • 190230Z AUTO 28003KT 9999 OVC041 03/03 Q1017 NOSIG
  • 190200Z AUTO VRB03KT 9999 OVC046 03/03 Q1017

TAF TAF LFSL
Valide du 19 à 03h jusqu'au 19 à 12h UTC


190200Z 1903/1912 VRB03KT 9999 BKN045



MET'MAP, la Météo Aéronautique d'un coup d'oeil ! - Copyright ORBIFLY Décembre 2007 - Disclaimer

ORBIFLY MET'MAP TEAM :

Programmation & Développement : Alexandra Zaïnal
Conception & Développement : Baudouin d'Aumeries
Co-Programmation & Développement : Marc-Olivier Méhu
Soutien technique & logistique : Manuel Goepfert

Contact : metmap@orbifly.com




SOURCES & CREDITS :

   NOAA